Williams Bay, WI (53191)

8:24 AM CST on November 24, 2014 (GMT -0600)
Country Club Estates | Change Station
CLOSE
Current Station
Personal Weather Station
Location: Fontana-on-Geneva Lake, WI
Elevation: 1056 ft
Nearby Weather Stations
Active Advisory: Winter Weather Advisory

Elev 1056 ft 42.54 °N, 88.57 °W | Updated 14 minutes ago

Overcast
Overcast
41.0 °F
Feels Like 41 °F
N
2.2
Wind Variable Wind from West

Today
High -- | Low -- °F
--% Chance of Precip.
Yesterday
High -- | Low -- °F
Precip. -- in
6:56 AM 4:24 PM
Waxing Crescent, 5% visible
Pressure 29.08 in
Visibility 7.0 miles
Clouds Overcast 400 ft
Windchill 41 °F
Dew Point 41 °F
Humidity 99%
Rainfall 0.00 in
Snow Depth Not available.
UV 0 out of 12
Pollen .10 out of 12
Air Quality Not available.
Flu Activity Not available.
METAR KBUU 241355Z AUTO 27009KT 7SM OVC004 06/06 A2908 RMK AO2 T00600060

More Conditions Fewer Conditions

Pressure 29.08 in
Visibility 7.0 miles
Clouds Overcast 400 ft
Windchill 41 °F
Dew Point 41 °F
Humidity 99%
Rainfall 0.00 in
Snow Depth Not available.
UV 0 out of 12
Pollen .10 out of 12
Air Quality Not available.
Flu Activity Not available.
METAR KBUU 241355Z AUTO 27009KT 7SM OVC004 06/06 A2908 RMK AO2 T00600060

More Conditions Fewer Conditions

10-Day Weather Forecast

Almanac

Astronomy

Nov. 24, 2014 Rise Set
Actual Time
Civil Twilight
Nautical Twilight
Astronomical Twilight
Moon
Length of Visible Light
Length of Day
Tomorrow will be .
, % of the Moon is Illuminated

Today's Extremes

State Highs State Lows

Community

WunderPhotos

Upload Photos

1,773,343 photos uploaded!

WunderBlogs® & News

Nearby

Air Quality

  Air Quality AQ Index Pollutant
Not available.

Snow Depth

Station Depth Elevation

Earthquake Activity

City Distance Mag. Time & Date
Minimum magnitude displayed is 2.5.

Coastal Water Temperatures

Place Temperature

Nearby Weather Stations